createdAt,value
2023-03-12T00:00:07.891Z,12.00
2023-03-12T00:02:35.125Z,13.10
2023-03-12T00:05:02.332Z,15.43
2023-03-12T00:07:29.600Z,13.60
2023-03-12T00:09:56.776Z,10.73
2023-03-12T00:12:23.918Z,12.13
2023-03-12T00:14:51.057Z,9.07
2023-03-12T00:17:18.165Z,17.87
2023-03-12T00:19:45.424Z,10.53
2023-03-12T00:22:12.556Z,10.00
2023-03-12T00:24:39.665Z,11.30
2023-03-12T00:27:08.533Z,10.33
2023-03-12T00:29:36.322Z,11.77
2023-03-12T00:32:03.462Z,12.30
2023-03-12T00:34:30.673Z,12.23
2023-03-12T00:36:57.837Z,13.13
2023-03-12T00:39:24.992Z,10.47
2023-03-12T00:41:53.287Z,12.63
2023-03-12T00:44:20.517Z,14.43
2023-03-12T00:46:47.744Z,10.57
2023-03-12T00:49:14.948Z,13.57
2023-03-12T00:51:42.032Z,12.70
2023-03-12T00:54:09.189Z,14.77
2023-03-12T00:56:38.420Z,10.67
2023-03-12T00:59:05.607Z,11.80
2023-03-12T01:01:32.740Z,12.03
2023-03-12T01:03:59.983Z,10.83
2023-03-12T01:06:31.279Z,13.50
2023-03-12T01:08:58.482Z,13.67
2023-03-12T01:11:25.812Z,10.37
2023-03-12T01:13:52.935Z,10.37
2023-03-12T01:16:20.086Z,10.10
2023-03-12T01:18:47.251Z,8.23
2023-03-12T01:21:14.629Z,10.80
2023-03-12T01:23:41.924Z,11.93
2023-03-12T01:26:09.066Z,10.57
2023-03-12T01:28:36.204Z,14.30
2023-03-12T01:31:10.096Z,8.80
2023-03-12T01:33:37.417Z,8.00
2023-03-12T01:36:05.027Z,9.63
2023-03-12T01:38:32.228Z,10.93
2023-03-12T01:40:59.361Z,10.60
2023-03-12T01:43:29.769Z,12.00
2023-03-12T01:46:03.391Z,11.33
2023-03-12T01:48:33.014Z,8.90
2023-03-12T01:51:00.708Z,9.37
2023-03-12T01:53:28.410Z,11.30
2023-03-12T01:56:05.893Z,10.57
2023-03-12T01:58:35.054Z,13.30
2023-03-12T02:01:03.690Z,11.27
2023-03-12T02:03:31.976Z,12.43
2023-03-12T02:06:03.079Z,9.33
2023-03-12T02:08:30.246Z,9.63
2023-03-12T02:10:57.403Z,8.13
2023-03-12T02:13:24.647Z,10.40
2023-03-12T02:15:51.741Z,10.93
2023-03-12T02:18:22.531Z,10.80
2023-03-12T02:20:55.680Z,8.57
2023-03-12T02:23:25.500Z,9.73
2023-03-12T02:25:53.104Z,12.57
2023-03-12T02:28:23.132Z,10.97
2023-03-12T02:30:52.891Z,9.97
2023-03-12T02:33:20.147Z,9.10
2023-03-12T02:35:50.676Z,8.03
2023-03-12T02:38:33.069Z,9.93
2023-03-12T02:41:02.801Z,11.73
2023-03-12T02:43:29.932Z,9.90
2023-03-12T02:45:57.132Z,7.07
2023-03-12T02:48:24.287Z,7.53
2023-03-12T02:50:51.381Z,13.13
2023-03-12T02:53:18.523Z,8.37
2023-03-12T02:59:08.716Z,9.40
2023-03-12T03:01:36.193Z,7.07
2023-03-12T03:04:03.829Z,11.70
2023-03-12T03:06:32.396Z,11.37
2023-03-12T03:08:59.722Z,8.77
2023-03-12T03:11:27.002Z,10.00
2023-03-12T03:13:55.083Z,9.37
2023-03-12T03:16:22.615Z,14.33
2023-03-12T03:18:50.121Z,10.93
2023-03-12T03:21:17.553Z,11.60
2023-03-12T03:23:45.604Z,9.57
2023-03-12T03:26:12.682Z,10.87
2023-03-12T03:28:39.885Z,9.57
2023-03-12T03:31:07.232Z,8.67
2023-03-12T03:33:35.439Z,11.63
2023-03-12T03:36:03.394Z,7.47
2023-03-12T03:38:31.014Z,10.60
2023-03-12T03:40:58.052Z,8.57
2023-03-12T03:43:25.358Z,9.43
2023-03-12T03:45:59.328Z,7.70
2023-03-12T03:48:26.438Z,12.20
2023-03-12T03:50:53.665Z,7.93
2023-03-12T03:53:21.002Z,8.27
2023-03-12T03:55:48.054Z,7.30
2023-03-12T03:58:15.281Z,9.57
2023-03-12T04:00:44.640Z,7.30
2023-03-12T04:03:11.807Z,6.43
2023-03-12T04:05:39.045Z,7.10
2023-03-12T04:08:06.464Z,6.33
2023-03-12T04:10:33.501Z,10.77
2023-03-12T04:13:00.593Z,6.10
2023-03-12T04:15:27.616Z,8.60
2023-03-12T04:17:54.738Z,8.73
2023-03-12T04:20:21.836Z,11.70
2023-03-12T04:22:48.889Z,9.17
2023-03-12T04:25:15.949Z,7.27
2023-03-12T04:27:43.079Z,9.07
2023-03-12T04:30:10.361Z,9.67
2023-03-12T04:32:37.455Z,10.30
2023-03-12T04:35:04.739Z,7.73
2023-03-12T04:37:33.046Z,11.07
2023-03-12T04:40:00.137Z,8.83
2023-03-12T04:42:27.212Z,8.13
2023-03-12T04:44:54.229Z,11.73
2023-03-12T04:47:21.292Z,7.97
2023-03-12T04:49:48.488Z,6.83
2023-03-12T04:52:17.533Z,7.57
2023-03-12T04:54:47.857Z,7.27
2023-03-12T04:57:15.165Z,7.80
2023-03-12T04:59:42.221Z,15.13
2023-03-12T05:02:09.285Z,7.43
2023-03-12T05:04:36.381Z,6.67
2023-03-12T05:07:03.485Z,6.13
2023-03-12T05:09:30.619Z,8.33
2023-03-12T05:11:57.667Z,4.87
2023-03-12T05:14:24.846Z,8.77
2023-03-12T05:16:51.942Z,6.50
2023-03-12T05:19:19.242Z,6.27
2023-03-12T05:21:46.797Z,8.13
2023-03-12T05:24:13.894Z,5.73
2023-03-12T05:26:41.035Z,8.67
2023-03-12T05:29:08.187Z,5.50
2023-03-12T05:31:36.453Z,7.63
2023-03-12T05:34:03.903Z,6.97
2023-03-12T05:36:31.041Z,5.00
2023-03-12T05:38:58.104Z,4.00
2023-03-12T05:41:29.138Z,5.67
2023-03-12T05:43:56.890Z,9.27
2023-03-12T05:46:25.159Z,6.20
2023-03-12T05:48:52.524Z,4.93
2023-03-12T05:51:20.263Z,4.43
2023-03-12T05:53:47.362Z,4.27
2023-03-12T05:56:17.164Z,4.47
2023-03-12T05:58:45.081Z,8.87
2023-03-12T06:01:13.450Z,5.83
2023-03-12T06:03:40.646Z,5.57
2023-03-12T06:06:07.842Z,4.90
2023-03-12T06:08:34.946Z,3.80
2023-03-12T06:11:02.009Z,7.47
2023-03-12T06:13:29.071Z,6.90
2023-03-12T06:16:01.753Z,4.97
2023-03-12T06:18:28.801Z,5.63
2023-03-12T06:20:55.820Z,5.33
2023-03-12T06:23:22.874Z,6.33
2023-03-12T06:25:49.974Z,3.13
2023-03-12T06:28:17.012Z,5.17
2023-03-12T06:30:44.042Z,3.27
2023-03-12T06:33:11.204Z,7.10
2023-03-12T06:35:38.323Z,8.67
2023-03-12T06:38:05.516Z,6.43
2023-03-12T06:40:32.961Z,10.57
2023-03-12T06:43:00.144Z,3.63
2023-03-12T06:45:27.197Z,3.97
2023-03-12T06:47:54.249Z,4.60
2023-03-12T06:50:21.421Z,4.33
2023-03-12T06:52:48.448Z,8.30
2023-03-12T06:55:15.531Z,6.70
2023-03-12T06:57:42.867Z,3.63
2023-03-12T07:00:10.328Z,6.80
2023-03-12T07:02:37.564Z,6.43
2023-03-12T07:05:05.067Z,5.27
2023-03-12T07:07:32.118Z,3.90
2023-03-12T07:10:00.158Z,5.53
2023-03-12T07:12:27.196Z,5.07
2023-03-12T07:14:54.249Z,6.13
2023-03-12T07:17:22.135Z,6.10
2023-03-12T07:19:49.903Z,5.83
2023-03-12T07:22:16.957Z,5.27
2023-03-12T07:24:44.259Z,4.00
2023-03-12T07:27:11.290Z,4.97
2023-03-12T07:29:38.333Z,6.03
2023-03-12T07:32:05.873Z,5.00
2023-03-12T07:34:33.070Z,2.77
2023-03-12T07:37:00.414Z,5.27
2023-03-12T07:39:27.789Z,5.53
2023-03-12T07:41:54.896Z,3.73
2023-03-12T07:44:21.955Z,7.83
2023-03-12T07:46:49.403Z,3.80
2023-03-12T07:49:16.513Z,5.63
2023-03-12T07:51:43.940Z,7.80
2023-03-12T07:54:11.002Z,4.67
2023-03-12T07:56:38.338Z,5.20
2023-03-12T07:59:05.709Z,3.90
2023-03-12T08:01:32.974Z,3.50
2023-03-12T08:04:00.417Z,4.40
2023-03-12T08:06:27.988Z,5.17
2023-03-12T08:08:55.087Z,7.87
2023-03-12T08:11:22.560Z,3.93
2023-03-12T08:13:49.918Z,6.43
2023-03-12T08:16:18.472Z,6.37
2023-03-12T08:18:45.533Z,7.43
2023-03-12T08:21:16.324Z,6.00
2023-03-12T08:23:44.240Z,5.80
2023-03-12T08:26:11.364Z,2.87
2023-03-12T08:28:38.472Z,7.03
2023-03-12T08:31:05.893Z,7.00
2023-03-12T08:33:33.004Z,8.27
2023-03-12T08:36:00.160Z,2.90
2023-03-12T08:38:27.849Z,3.77
2023-03-12T08:40:56.439Z,4.97
2023-03-12T08:43:23.473Z,3.97
2023-03-12T08:45:54.555Z,8.27
2023-03-12T08:48:21.648Z,6.77
2023-03-12T08:50:48.740Z,4.30
2023-03-12T08:53:15.774Z,4.63
2023-03-12T08:55:42.838Z,4.93
2023-03-12T08:58:09.921Z,6.03
2023-03-12T09:00:36.986Z,14.40
2023-03-12T09:03:04.177Z,14.50
2023-03-12T09:05:31.292Z,15.67
2023-03-12T09:07:58.811Z,7.50
2023-03-12T09:10:30.312Z,15.87
2023-03-12T09:12:57.908Z,12.87
2023-03-12T09:15:25.018Z,12.43
2023-03-12T09:17:52.165Z,14.03
2023-03-12T09:20:19.355Z,12.87
2023-03-12T09:22:46.615Z,11.43
2023-03-12T09:25:13.908Z,16.53
2023-03-12T09:27:42.142Z,9.33
2023-03-12T09:30:12.625Z,7.50
2023-03-12T09:32:39.759Z,10.87
2023-03-12T09:35:07.621Z,9.37
2023-03-12T09:37:36.279Z,6.57
2023-03-12T09:40:07.477Z,10.83
2023-03-12T09:42:47.665Z,5.67
2023-03-12T09:45:20.857Z,12.33
2023-03-12T09:47:53.033Z,7.23
2023-03-12T09:50:31.689Z,6.40
2023-03-12T09:53:04.148Z,6.47
2023-03-12T09:55:41.932Z,5.50
2023-03-12T09:58:25.803Z,5.17
2023-03-12T10:00:55.727Z,5.90
2023-03-12T10:03:29.044Z,7.23
2023-03-12T10:06:04.428Z,8.83
2023-03-12T10:08:40.350Z,8.20
2023-03-12T10:11:24.357Z,6.90
2023-03-12T10:13:54.665Z,6.90
2023-03-12T10:16:27.604Z,7.33
2023-03-12T10:19:13.327Z,7.47
2023-03-12T10:21:59.446Z,7.13
2023-03-12T10:24:52.833Z,12.47
2023-03-12T10:27:20.709Z,11.77
2023-03-12T10:29:49.321Z,7.00
2023-03-12T10:32:20.397Z,8.20
2023-03-12T10:34:49.699Z,14.47
2023-03-12T10:37:29.060Z,9.37
2023-03-12T10:39:56.707Z,8.33
2023-03-12T10:42:25.699Z,12.07
2023-03-12T10:44:58.797Z,11.13
2023-03-12T10:47:36.076Z,9.67
2023-03-12T10:50:12.896Z,12.60
2023-03-12T10:52:40.274Z,12.37
2023-03-12T10:55:26.424Z,14.83
2023-03-12T10:57:54.146Z,11.53
2023-03-12T11:00:26.239Z,13.10
2023-03-12T11:03:04.432Z,14.27
2023-03-12T11:05:33.797Z,20.23
2023-03-12T11:08:01.963Z,8.97
2023-03-12T11:10:45.856Z,9.73
2023-03-12T11:13:32.829Z,11.20
2023-03-12T11:16:12.211Z,9.13
2023-03-12T11:18:40.374Z,9.50
2023-03-12T11:21:10.324Z,12.57
2023-03-12T11:23:39.048Z,11.33
2023-03-12T11:26:12.582Z,9.43
2023-03-12T11:28:42.141Z,15.43
2023-03-12T11:31:19.851Z,11.13
2023-03-12T11:33:47.100Z,13.27
2023-03-12T11:36:18.032Z,12.03
2023-03-12T11:39:02.040Z,11.80
2023-03-12T11:41:42.340Z,12.70
2023-03-12T11:44:23.846Z,14.20
2023-03-12T11:46:54.043Z,13.57
2023-03-12T11:49:33.254Z,15.03
2023-03-12T11:52:06.731Z,15.03
2023-03-12T11:54:41.529Z,14.27
2023-03-12T11:57:20.661Z,15.00
2023-03-12T12:00:12.762Z,15.27
2023-03-12T12:02:46.007Z,15.57
2023-03-12T12:05:13.141Z,15.53
2023-03-12T12:07:43.277Z,16.10
2023-03-12T12:10:25.251Z,16.00
2023-03-12T12:13:11.516Z,16.60
2023-03-12T12:15:56.983Z,16.83
2023-03-12T12:18:42.526Z,15.93
2023-03-12T12:21:19.128Z,18.40
2023-03-12T12:23:59.555Z,19.37
2023-03-12T12:26:26.687Z,17.27
2023-03-12T12:28:56.736Z,17.50
2023-03-12T12:31:23.859Z,18.63
2023-03-12T12:34:09.787Z,19.20
2023-03-12T12:36:37.434Z,20.43
2023-03-12T12:39:14.689Z,18.00
2023-03-12T12:42:02.008Z,19.10
2023-03-12T12:44:33.908Z,20.80
2023-03-12T12:47:03.768Z,18.73
2023-03-12T12:49:41.852Z,21.03
2023-03-12T12:52:12.268Z,19.23
2023-03-12T12:54:58.418Z,21.90
2023-03-12T12:57:30.158Z,17.83
2023-03-12T12:59:57.209Z,17.43
2023-03-12T13:02:27.753Z,20.63
2023-03-12T13:04:58.989Z,19.33
2023-03-12T13:07:27.993Z,17.33
2023-03-12T13:09:56.730Z,17.67
2023-03-12T13:12:33.115Z,16.90
2023-03-12T13:15:01.020Z,16.43
2023-03-12T13:17:35.031Z,16.30
2023-03-12T13:20:22.341Z,18.63
2023-03-12T13:23:11.917Z,15.50
2023-03-12T13:26:11.538Z,16.07
2023-03-12T13:29:11.413Z,18.67
2023-03-12T13:31:40.480Z,17.30
2023-03-12T13:34:08.856Z,18.70
2023-03-12T13:36:38.724Z,19.27
2023-03-12T13:39:08.612Z,18.50
2023-03-12T13:41:38.558Z,21.20
2023-03-12T13:44:34.690Z,19.37
2023-03-12T13:47:04.828Z,21.00
2023-03-12T13:49:52.417Z,21.53
2023-03-12T13:52:21.258Z,21.80
2023-03-12T13:54:50.488Z,21.53
2023-03-12T13:57:31.437Z,20.00
2023-03-12T13:59:59.110Z,23.87
2023-03-12T14:02:31.750Z,24.43
2023-03-12T14:05:04.031Z,20.80
2023-03-12T14:07:35.670Z,25.17
2023-03-12T14:10:10.316Z,24.07
2023-03-12T14:13:01.433Z,22.20
2023-03-12T14:15:35.604Z,25.10
2023-03-12T14:18:04.982Z,22.27
2023-03-12T14:20:32.202Z,28.27
2023-03-12T14:23:00.802Z,36.20
2023-03-12T14:25:34.007Z,24.10
2023-03-12T14:28:02.147Z,20.10
2023-03-12T14:30:47.943Z,19.50
2023-03-12T14:33:16.229Z,22.77
2023-03-12T14:35:50.276Z,21.13
2023-03-12T14:38:17.417Z,22.67
2023-03-12T14:40:52.835Z,24.13
2023-03-12T14:43:29.897Z,18.17
2023-03-12T14:46:07.596Z,17.80
2023-03-12T14:48:35.667Z,20.00
2023-03-12T14:51:03.409Z,17.50
2023-03-12T14:53:34.931Z,19.23
2023-03-12T14:56:03.318Z,16.47
2023-03-12T14:58:30.821Z,19.60
2023-03-12T15:01:02.768Z,18.50
2023-03-12T15:03:31.327Z,18.17
2023-03-12T15:05:58.654Z,17.40
2023-03-12T15:08:26.092Z,17.87
2023-03-12T15:10:57.816Z,16.73
2023-03-12T15:13:26.215Z,17.73
2023-03-12T15:15:55.163Z,17.77
2023-03-12T15:18:32.474Z,15.77
2023-03-12T15:21:00.315Z,19.60
2023-03-12T15:23:28.657Z,19.63
2023-03-12T15:26:16.271Z,19.40
2023-03-12T15:28:43.382Z,21.83
2023-03-12T15:31:15.522Z,22.40
2023-03-12T15:33:43.876Z,21.03
2023-03-12T15:36:17.476Z,17.93
2023-03-12T15:38:49.607Z,22.53
2023-03-12T15:41:19.879Z,24.07
2023-03-12T15:43:48.687Z,25.50
2023-03-12T15:46:18.171Z,25.40
2023-03-12T15:48:50.240Z,21.90
2023-03-12T15:51:34.637Z,29.90
2023-03-12T15:54:03.229Z,17.03
2023-03-12T15:56:31.878Z,19.70
2023-03-12T15:59:03.746Z,22.53
2023-03-12T16:01:30.931Z,20.00
2023-03-12T16:03:58.985Z,19.23
2023-03-12T16:06:29.713Z,25.67
2023-03-12T16:08:58.501Z,21.50
2023-03-12T16:11:27.338Z,17.63
2023-03-12T16:14:03.951Z,20.97
2023-03-12T16:16:31.213Z,19.23
2023-03-12T16:18:58.346Z,20.63
2023-03-12T16:21:25.505Z,21.00
2023-03-12T16:23:52.605Z,19.07
2023-03-12T16:26:19.711Z,20.50
2023-03-12T16:28:46.860Z,21.13
2023-03-12T16:31:14.828Z,21.97
2023-03-12T16:33:42.337Z,25.20
2023-03-12T16:36:16.028Z,22.87
2023-03-12T16:38:43.798Z,22.83
2023-03-12T16:41:13.233Z,21.53
2023-03-12T16:43:41.046Z,26.70
2023-03-12T16:46:09.300Z,20.53
2023-03-12T16:48:36.622Z,24.20
2023-03-12T16:51:04.264Z,17.23
2023-03-12T16:53:31.559Z,19.47
2023-03-12T16:56:02.490Z,27.83
2023-03-12T16:58:30.999Z,21.10
2023-03-12T17:00:58.342Z,24.37
2023-03-12T17:03:30.722Z,33.27
2023-03-12T17:05:58.746Z,23.43
2023-03-12T17:08:25.889Z,23.73
2023-03-12T17:10:52.957Z,25.73
2023-03-12T17:13:27.501Z,21.67
2023-03-12T17:15:55.566Z,21.67
2023-03-12T17:18:22.738Z,22.50
2023-03-12T17:20:51.580Z,25.70
2023-03-12T17:23:19.081Z,25.23
2023-03-12T17:25:46.606Z,22.47
2023-03-12T17:28:15.204Z,23.70
2023-03-12T17:30:42.400Z,25.77
2023-03-12T17:33:11.406Z,27.53
2023-03-12T17:35:39.803Z,26.00
2023-03-12T17:38:06.963Z,26.77
2023-03-12T17:40:35.500Z,19.77
2023-03-12T17:43:02.534Z,17.73
2023-03-12T17:45:29.586Z,24.43
2023-03-12T17:47:56.626Z,28.73
2023-03-12T17:50:23.727Z,26.77
2023-03-12T17:52:51.537Z,23.23
2023-03-12T17:55:18.728Z,27.63
2023-03-12T17:57:45.881Z,23.73
2023-03-12T18:00:13.360Z,27.53
2023-03-12T18:02:41.110Z,33.63
2023-03-12T18:05:09.027Z,23.73
2023-03-12T18:07:36.461Z,32.17
2023-03-12T18:10:03.840Z,25.30
2023-03-12T18:12:30.949Z,28.23
2023-03-12T18:14:58.019Z,29.73
2023-03-12T18:17:25.078Z,27.23
2023-03-12T18:19:52.124Z,30.30
2023-03-12T18:22:19.878Z,27.20
2023-03-12T18:24:47.792Z,26.27
2023-03-12T18:27:14.928Z,26.30
2023-03-12T18:29:42.356Z,29.83
2023-03-12T18:32:09.538Z,34.23
2023-03-12T18:34:37.603Z,34.90
2023-03-12T18:37:04.643Z,36.73
2023-03-12T18:39:31.762Z,30.03
2023-03-12T18:41:58.803Z,39.33
2023-03-12T18:44:25.869Z,41.27
2023-03-12T18:46:53.878Z,32.60
2023-03-12T18:49:21.130Z,29.03
2023-03-12T18:51:48.238Z,38.30
2023-03-12T18:54:16.185Z,31.87
2023-03-12T18:56:43.269Z,28.93
2023-03-12T18:59:10.327Z,29.57
2023-03-12T19:01:37.400Z,28.10
2023-03-12T19:04:04.702Z,27.73
2023-03-12T19:06:44.326Z,33.20
2023-03-12T19:09:17.350Z,33.93
2023-03-12T19:11:44.406Z,28.73
2023-03-12T19:14:12.304Z,28.07
2023-03-12T19:16:39.463Z,26.17
2023-03-12T19:19:06.723Z,29.33
2023-03-12T19:21:33.780Z,28.97
2023-03-12T19:24:00.810Z,30.23
2023-03-12T19:26:27.869Z,30.50
2023-03-12T19:28:54.963Z,28.60
2023-03-12T19:31:22.058Z,30.77
2023-03-12T19:33:49.176Z,27.30
2023-03-12T19:36:16.297Z,30.67
2023-03-12T19:38:43.318Z,20.23
2023-03-12T19:41:10.448Z,26.27
2023-03-12T19:43:37.941Z,25.33
2023-03-12T19:46:05.245Z,22.10
2023-03-12T19:48:32.590Z,28.90
2023-03-12T19:51:06.103Z,33.17
2023-03-12T19:53:35.998Z,28.63
2023-03-12T19:56:03.323Z,25.03
2023-03-12T19:58:30.407Z,21.23
2023-03-12T20:01:00.819Z,27.33
2023-03-12T20:03:28.551Z,26.80
2023-03-12T20:05:56.694Z,19.53
2023-03-12T20:08:26.070Z,33.17
2023-03-12T20:11:11.423Z,28.20
2023-03-12T20:13:41.478Z,26.20
2023-03-12T20:16:08.849Z,30.30
2023-03-12T20:18:38.891Z,30.77
2023-03-12T20:21:06.076Z,34.57
2023-03-12T20:23:33.188Z,29.40
2023-03-12T20:26:00.430Z,23.53
2023-03-12T20:28:27.482Z,24.07
2023-03-12T20:30:54.644Z,26.73
2023-03-12T20:33:21.954Z,28.77
2023-03-12T20:35:50.518Z,24.13
2023-03-12T20:38:17.665Z,27.07
2023-03-12T20:40:47.791Z,23.57
2023-03-12T20:43:14.837Z,26.20
2023-03-12T20:45:41.981Z,23.90
2023-03-12T20:48:09.117Z,23.33
2023-03-12T20:50:39.125Z,23.87
2023-03-12T20:53:06.658Z,20.60
2023-03-12T20:55:33.795Z,24.30
2023-03-12T20:58:00.849Z,20.40
2023-03-12T21:00:28.033Z,31.27
2023-03-12T21:02:55.077Z,30.97
2023-03-12T21:05:24.941Z,24.63
2023-03-12T21:07:53.672Z,28.63
2023-03-12T21:10:21.131Z,19.73
2023-03-12T21:12:48.227Z,26.07
2023-03-12T21:15:15.261Z,26.33
2023-03-12T21:17:42.319Z,21.03
2023-03-12T21:20:17.253Z,30.87
2023-03-12T21:22:46.772Z,26.43
2023-03-12T21:25:13.957Z,28.13
2023-03-12T21:27:50.545Z,27.90
2023-03-12T21:30:18.592Z,24.40
2023-03-12T21:32:45.713Z,24.77
2023-03-12T21:35:12.825Z,29.77
2023-03-12T21:37:40.303Z,17.37
2023-03-12T21:40:09.241Z,31.23
2023-03-12T21:42:36.509Z,26.77
2023-03-12T21:45:03.630Z,16.03
2023-03-12T21:47:30.750Z,22.40
2023-03-12T21:49:57.806Z,32.63
2023-03-12T21:52:24.945Z,20.13
2023-03-12T21:54:51.977Z,25.00
2023-03-12T21:57:19.032Z,31.50
2023-03-12T21:59:46.079Z,31.87
2023-03-12T22:02:16.621Z,26.17
2023-03-12T22:04:43.879Z,27.83
2023-03-12T22:07:11.012Z,24.43
2023-03-12T22:09:38.133Z,28.07
2023-03-12T22:12:05.329Z,32.10
2023-03-12T22:14:32.518Z,28.70
2023-03-12T22:16:59.617Z,25.93
2023-03-12T22:19:26.656Z,22.33
2023-03-12T22:21:54.117Z,26.67
2023-03-12T22:24:21.183Z,24.37
2023-03-12T22:26:48.290Z,26.23
2023-03-12T22:29:15.334Z,23.37
2023-03-12T22:31:42.441Z,22.60
2023-03-12T22:34:09.823Z,29.17
2023-03-12T22:36:40.417Z,29.50
2023-03-12T22:39:07.597Z,21.60
2023-03-12T22:41:34.677Z,16.83
2023-03-12T22:44:02.956Z,17.40
2023-03-12T22:46:30.069Z,28.30
2023-03-12T22:48:58.726Z,19.87
2023-03-12T22:51:26.204Z,27.37
2023-03-12T22:53:53.317Z,29.40
2023-03-12T22:56:20.418Z,21.97
2023-03-12T22:58:47.698Z,23.57
2023-03-12T23:01:16.063Z,22.50
2023-03-12T23:03:43.819Z,15.47
2023-03-12T23:06:12.217Z,26.17
2023-03-12T23:08:39.447Z,22.60
2023-03-12T23:11:06.971Z,25.83
2023-03-12T23:13:35.106Z,18.77
2023-03-12T23:16:04.845Z,26.07
2023-03-12T23:18:32.090Z,18.30
2023-03-12T23:20:59.992Z,22.60
2023-03-12T23:23:27.111Z,22.67
2023-03-12T23:25:57.534Z,25.33
2023-03-12T23:28:25.106Z,22.00
2023-03-12T23:30:55.166Z,22.40
2023-03-12T23:33:22.261Z,18.47
2023-03-12T23:35:56.586Z,18.80
2023-03-12T23:38:24.094Z,15.33
2023-03-12T23:40:51.483Z,15.13
2023-03-12T23:43:18.565Z,24.63
2023-03-12T23:45:45.683Z,23.40
2023-03-12T23:48:12.825Z,15.43
2023-03-12T23:50:41.110Z,20.50
2023-03-12T23:53:08.221Z,18.50
2023-03-12T23:55:35.289Z,19.87
2023-03-12T23:58:02.397Z,17.20
